Time;durP1;ratioP1;P1;durP2;ratioP2;P2;SDS_P1;SDS_P2;PMS_P1;PMS_P2;Temp;Humidity;BMP_temperature;BMP_pressure;BME280_temperature;BME280_humidity;BME280_pressure;Samples;Min_cycle;Max_cycle;Signal;HPM_P1;HPM_P2
2022/01/08 00:01:23;;;;;;;11.33;6.20;;;2.30;99.90;;;;;;5020324;28;20212;-78
2022/01/08 00:03:51;;;;;;;7.43;5.70;;;2.30;99.90;;;;;;5036782;28;20196;-78
2022/01/08 00:06:23;;;;;;;10.80;6.47;;;2.30;99.90;;;;;;5016834;28;20184;-78
2022/01/08 00:08:49;;;;;;;7.80;5.60;;;2.30;99.90;;;;;;5035146;28;20185;-78
2022/01/08 00:11:18;;;;;;;9.30;5.90;;;2.30;99.90;;;;;;5019491;28;20178;-79
2022/01/08 00:13:44;;;;;;;7.67;5.30;;;2.30;99.90;;;;;;5015092;28;20210;-79
2022/01/08 00:16:10;;;;;;;11.67;5.97;;;2.40;99.90;;;;;;5012540;28;20178;-79
2022/01/08 00:18:36;;;;;;;8.63;6.13;;;2.30;99.90;;;;;;5022124;28;20172;-78
2022/01/08 00:21:02;;;;;;;7.53;5.60;;;2.30;99.90;;;;;;5021388;28;20178;-78
2022/01/08 00:23:28;;;;;;;9.77;6.50;;;2.30;99.90;;;;;;5024843;28;20235;-79
2022/01/08 00:26:07;;;;;;;12.07;5.73;;;2.30;99.90;;;;;;5020251;28;20181;-78
2022/01/08 00:28:32;;;;;;;9.37;6.20;;;2.30;99.90;;;;;;5037416;28;20252;-78
2022/01/08 00:30:58;;;;;;;8.57;5.80;;;2.30;99.90;;;;;;5022546;28;20201;-78
2022/01/08 00:33:30;;;;;;;8.23;5.73;;;2.30;99.90;;;;;;5038253;28;20193;-78
2022/01/08 00:35:56;;;;;;;10.27;5.90;;;2.30;99.90;;;;;;5038093;28;20244;-78
2022/01/08 00:38:21;;;;;;;10.47;6.90;;;2.30;99.90;;;;;;5009996;28;20244;-78
2022/01/08 00:40:47;;;;;;;8.53;6.60;;;2.20;99.90;;;;;;5023832;28;20185;-78
2022/01/08 00:43:13;;;;;;;8.37;6.97;;;2.20;99.90;;;;;;5036295;28;20181;-78
2022/01/08 00:45:38;;;;;;;10.47;7.27;;;2.10;99.90;;;;;;5010911;28;20178;-78
2022/01/08 00:48:04;;;;;;;12.03;7.13;;;2.10;99.90;;;;;;5016608;28;20198;-77
2022/01/08 00:51:01;;;;;;;9.37;7.57;;;2.10;99.90;;;;;;5016101;28;20202;-77
2022/01/08 00:53:27;;;;;;;9.93;7.03;;;2.10;99.90;;;;;;5032518;28;20196;-77
2022/01/08 00:55:52;;;;;;;11.17;8.40;;;2.10;99.90;;;;;;5014089;28;20174;-77
2022/01/08 01:58:52;;;;;;;11.10;9.30;;;2.10;99.90;;;;;;5733501;22;20225;-83
2022/01/08 02:01:18;;;;;;;13.17;10.07;;;2.10;99.90;;;;;;5024050;28;20652;-83
2022/01/08 02:03:44;;;;;;;14.30;10.63;;;2.10;99.90;;;;;;5041702;28;20322;-84
2022/01/08 02:06:10;;;;;;;13.67;10.10;;;2.10;99.90;;;;;;5040939;28;20188;-84
2022/01/08 02:08:38;;;;;;;14.33;9.53;;;2.20;99.90;;;;;;5041732;28;20279;-82
2022/01/08 02:11:06;;;;;;;12.90;9.50;;;2.10;99.90;;;;;;5025203;28;20209;-82
2022/01/08 02:13:33;;;;;;;12.80;9.73;;;2.10;99.90;;;;;;5023210;28;20225;-83
2022/01/08 02:16:00;;;;;;;16.73;9.50;;;2.10;99.90;;;;;;5040513;28;20640;-83
2022/01/08 02:18:27;;;;;;;14.27;10.20;;;2.10;99.90;;;;;;5019845;28;20185;-84
2022/01/08 02:20:54;;;;;;;12.10;9.47;;;2.10;99.90;;;;;;5029415;28;20174;-83
2022/01/08 02:23:19;;;;;;;14.10;10.23;;;2.10;99.90;;;;;;5041833;28;20181;-83
2022/01/08 02:26:00;;;;;;;14.90;10.80;;;2.00;99.90;;;;;;5025305;28;20251;-83
2022/01/08 02:28:26;;;;;;;15.00;11.17;;;2.00;99.90;;;;;;5024740;28;20189;-83
2022/01/08 02:30:52;;;;;;;13.33;11.00;;;2.00;99.90;;;;;;5030284;28;20216;-82
2022/01/08 02:33:18;;;;;;;13.63;11.20;;;2.00;99.90;;;;;;5028146;28;20731;-82
2022/01/08 02:35:44;;;;;;;17.70;11.07;;;2.10;99.90;;;;;;5042229;28;20189;-83
2022/01/08 02:38:10;;;;;;;17.33;10.67;;;2.10;99.90;;;;;;5025698;28;20173;-83
2022/01/08 02:40:49;;;;;;;13.20;9.63;;;2.10;99.90;;;;;;5041086;28;20188;-83
2022/01/08 02:43:15;;;;;;;12.93;10.10;;;2.00;99.90;;;;;;5025829;28;20200;-83
2022/01/08 02:45:46;;;;;;;12.20;9.83;;;2.00;99.90;;;;;;5041468;28;20189;-87
2022/01/08 02:48:12;;;;;;;12.20;9.63;;;2.00;99.90;;;;;;5032045;28;20170;-84
2022/01/08 02:51:35;;;;;;;12.93;10.47;;;2.00;99.90;;;;;;5042263;28;20181;-87
2022/01/08 02:54:02;;;;;;;14.37;10.00;;;2.00;99.90;;;;;;4965925;28;20211;-81
2022/01/08 02:56:28;;;;;;;12.50;9.97;;;2.00;99.90;;;;;;4965307;28;20176;-81
2022/01/08 02:58:54;;;;;;;13.13;10.30;;;2.00;99.90;;;;;;5017915;28;20271;-82
2022/01/08 03:01:20;;;;;;;14.40;11.47;;;2.00;99.90;;;;;;5023403;28;20200;-82
2022/01/08 03:03:57;;;;;;;13.53;10.80;;;2.10;99.90;;;;;;5023882;28;20200;-83
2022/01/08 03:06:26;;;;;;;14.20;10.83;;;2.10;99.90;;;;;;5027931;28;20268;-83
2022/01/08 03:08:57;;;;;;;14.97;11.00;;;2.00;99.90;;;;;;5041476;28;20172;-83
2022/01/08 03:11:27;;;;;;;13.13;10.20;;;2.00;99.90;;;;;;5039087;28;20197;-83
2022/01/08 03:14:05;;;;;;;12.90;10.03;;;2.00;99.90;;;;;;5025135;28;20604;-83
2022/01/08 03:16:40;;;;;;;12.77;10.00;;;2.00;99.90;;;;;;5035880;28;20178;-82
2022/01/08 03:19:09;;;;;;;13.50;10.43;;;2.10;99.90;;;;;;5037525;28;20161;-82
2022/01/08 03:21:42;;;;;;;12.57;10.00;;;2.00;99.90;;;;;;5035823;28;20588;-82
2022/01/08 03:24:16;;;;;;;14.57;10.77;;;2.10;99.90;;;;;;5021781;28;20197;-83
2022/01/08 03:26:45;;;;;;;13.17;11.20;;;2.20;99.90;;;;;;5033012;28;20180;-83
2022/01/08 03:29:11;;;;;;;14.47;11.10;;;2.30;99.90;;;;;;5032778;28;20197;-83
2022/01/08 03:31:43;;;;;;;14.07;10.67;;;2.30;99.90;;;;;;5024771;28;20204;-83
2022/01/08 03:34:08;;;;;;;13.33;10.77;;;2.20;99.90;;;;;;5028219;28;20212;-83
2022/01/08 03:37:02;;;;;;;15.27;10.97;;;2.10;99.90;;;;;;5054908;28;20161;-83
2022/01/08 03:39:28;;;;;;;12.23;10.57;;;2.10;99.90;;;;;;5058065;28;20182;-82
2022/01/08 03:41:56;;;;;;;18.20;13.03;;;2.10;99.90;;;;;;5042940;28;20181;-80
2022/01/08 03:44:22;;;;;;;16.77;11.00;;;2.10;99.90;;;;;;5043007;28;20181;-81
2022/01/08 03:46:48;;;;;;;16.50;11.33;;;2.10;99.90;;;;;;5041852;28;20169;-81
2022/01/08 03:49:24;;;;;;;15.67;11.07;;;2.00;99.90;;;;;;5059331;28;20219;-82
2022/01/08 03:51:51;;;;;;;14.97;9.93;;;2.10;99.90;;;;;;5059368;28;20201;-81
2022/01/08 03:54:17;;;;;;;15.80;10.40;;;2.10;99.90;;;;;;5058439;28;20205;-81
2022/01/08 03:56:48;;;;;;;11.37;9.67;;;2.10;99.90;;;;;;5059192;28;20188;-83
2022/01/08 03:59:15;;;;;;;16.10;10.37;;;2.00;99.90;;;;;;5054520;28;20192;-82
2022/01/08 04:01:41;;;;;;;14.60;10.07;;;2.00;99.90;;;;;;5038987;28;20270;-82
2022/01/08 04:04:07;;;;;;;14.20;10.27;;;2.00;99.90;;;;;;5058686;28;20162;-82
2022/01/08 04:06:32;;;;;;;13.30;10.43;;;2.00;99.90;;;;;;5058296;28;20157;-81
2022/01/08 04:08:58;;;;;;;13.33;9.97;;;2.00;99.90;;;;;;5041748;28;20180;-82
2022/01/08 04:11:27;;;;;;;16.57;9.50;;;2.00;99.90;;;;;;5055890;28;20193;-81
2022/01/08 04:13:55;;;;;;;13.20;9.70;;;2.00;99.90;;;;;;5041360;28;20280;-82
2022/01/08 04:16:28;;;;;;;15.23;10.33;;;1.90;99.90;;;;;;5045318;28;20174;-82
2022/01/08 04:18:55;;;;;;;19.27;11.37;;;1.90;99.90;;;;;;5040503;28;20203;-82
2022/01/08 04:23:56;;;;;;;18.77;12.67;;;1.90;99.90;;;;;;5044792;28;20216;-82
2022/01/08 04:26:23;;;;;;;15.50;12.23;;;2.00;99.90;;;;;;5036101;28;20169;-82
2022/01/08 04:28:53;;;;;;;16.07;12.43;;;2.00;99.90;;;;;;5039663;28;20174;-82
2022/01/08 04:31:23;;;;;;;19.53;13.57;;;2.00;99.90;;;;;;5025385;28;20202;-83
2022/01/08 04:33:49;;;;;;;21.43;14.27;;;2.00;99.90;;;;;;5026849;28;20204;-83
2022/01/08 04:36:15;;;;;;;21.20;13.63;;;2.10;99.90;;;;;;5022570;28;20257;-83
2022/01/08 04:38:41;;;;;;;20.93;13.43;;;2.10;99.90;;;;;;5033076;28;20269;-82
2022/01/08 04:41:07;;;;;;;19.33;13.27;;;2.10;99.90;;;;;;5029747;28;20177;-82
2022/01/08 04:43:36;;;;;;;19.00;12.67;;;2.10;99.90;;;;;;5027919;28;20182;-82
2022/01/08 04:46:04;;;;;;;16.43;11.93;;;2.00;99.90;;;;;;5038315;28;20189;-83
2022/01/08 04:48:32;;;;;;;18.70;12.60;;;2.00;99.90;;;;;;5023895;28;20181;-82
2022/01/08 04:50:58;;;;;;;16.87;11.70;;;2.10;99.90;;;;;;5024608;28;20184;-82
2022/01/08 04:53:23;;;;;;;17.93;12.40;;;2.10;99.90;;;;;;5042145;28;20197;-83
2022/01/08 04:55:49;;;;;;;16.70;11.53;;;2.10;99.90;;;;;;5030412;28;20162;-84
2022/01/08 04:58:15;;;;;;;22.27;12.70;;;2.10;99.90;;;;;;5031424;28;20201;-82
2022/01/08 05:00:41;;;;;;;17.43;11.90;;;2.10;99.90;;;;;;5024823;28;20251;-83
2022/01/08 05:03:07;;;;;;;18.73;11.87;;;2.10;99.90;;;;;;5026752;28;20224;-82
2022/01/08 05:05:33;;;;;;;19.93;11.57;;;2.10;99.90;;;;;;5030828;28;20173;-83
2022/01/08 05:07:59;;;;;;;19.70;12.30;;;2.00;99.90;;;;;;5045172;28;20291;-82
2022/01/08 05:10:25;;;;;;;16.43;11.50;;;2.00;99.90;;;;;;5027196;28;20174;-83
2022/01/08 05:12:51;;;;;;;20.07;10.97;;;2.00;99.90;;;;;;5035236;28;20209;-82
2022/01/08 05:15:17;;;;;;;17.37;11.47;;;2.00;99.90;;;;;;5035499;28;20204;-82
2022/01/08 05:17:46;;;;;;;17.57;12.37;;;2.10;99.90;;;;;;5029116;28;20196;-82
2022/01/08 05:20:13;;;;;;;18.73;11.50;;;2.30;99.90;;;;;;5028055;28;20189;-82
2022/01/08 05:25:17;;;;;;;16.43;11.10;;;2.30;99.90;;;;;;5046099;28;20236;-82
2022/01/08 05:27:44;;;;;;;16.93;11.37;;;2.20;99.90;;;;;;5046699;28;20183;-83
2022/01/08 05:30:12;;;;;;;19.50;12.50;;;2.20;99.90;;;;;;5023215;28;20174;-83
2022/01/08 05:32:38;;;;;;;15.20;11.10;;;2.30;99.90;;;;;;5029955;28;20229;-83
2022/01/08 05:35:04;;;;;;;21.43;11.60;;;2.20;99.90;;;;;;5041595;28;20510;-81
2022/01/08 05:37:29;;;;;;;16.50;11.33;;;2.20;99.90;;;;;;5025616;28;20509;-82
2022/01/08 05:39:58;;;;;;;16.67;11.00;;;2.20;99.90;;;;;;5024326;28;20184;-83
2022/01/08 05:42:24;;;;;;;18.47;10.87;;;2.20;99.90;;;;;;5023489;28;20201;-83
2022/01/08 05:44:49;;;;;;;20.70;11.50;;;2.10;99.90;;;;;;5024157;28;20188;-82
2022/01/08 05:47:15;;;;;;;15.73;11.47;;;2.00;99.90;;;;;;5025597;28;20241;-81
2022/01/08 05:49:42;;;;;;;14.70;11.53;;;2.10;99.90;;;;;;5032789;28;20178;-81
2022/01/08 05:52:07;;;;;;;18.13;13.27;;;2.20;99.90;;;;;;5032288;28;20204;-81
2022/01/08 05:54:34;;;;;;;19.50;13.97;;;2.20;99.90;;;;;;5036622;28;20225;-82
2022/01/08 05:57:00;;;;;;;20.43;14.97;;;2.20;99.90;;;;;;5036085;28;20191;-82
2022/01/08 05:59:27;;;;;;;22.27;15.00;;;2.30;99.90;;;;;;5032342;28;20276;-82
2022/01/08 06:01:56;;;;;;;25.13;15.40;;;2.20;99.90;;;;;;5049436;28;20196;-82
2022/01/08 06:04:40;;;;;;;24.50;15.10;;;2.20;99.90;;;;;;5037835;28;20548;-83
2022/01/08 06:07:24;;;;;;;24.17;16.27;;;2.30;99.90;;;;;;5054685;28;20295;-83
2022/01/08 06:09:51;;;;;;;24.60;16.47;;;2.30;99.90;;;;;;5038906;28;20177;-83
2022/01/08 06:12:17;;;;;;;22.40;16.50;;;2.30;99.90;;;;;;5034582;28;20201;-83
2022/01/08 06:14:42;;;;;;;27.80;16.03;;;2.30;99.90;;;;;;5036921;28;20610;-82
2022/01/08 06:17:11;;;;;;;26.07;17.43;;;2.30;99.90;;;;;;5036374;28;20181;-83
2022/01/08 06:19:38;;;;;;;31.60;21.13;;;2.30;99.90;;;;;;5035111;28;20599;-83
2022/01/08 06:22:04;;;;;;;26.87;17.40;;;2.30;99.90;;;;;;5029733;28;20205;-83
2022/01/08 06:24:30;;;;;;;25.30;16.73;;;2.20;99.90;;;;;;5030673;28;20186;-82
2022/01/08 06:26:56;;;;;;;24.97;16.97;;;2.30;99.90;;;;;;5041741;28;20194;-82
2022/01/08 06:29:22;;;;;;;24.17;16.40;;;2.40;99.90;;;;;;5039953;28;20182;-82
2022/01/08 06:31:48;;;;;;;20.93;15.03;;;2.30;99.90;;;;;;5051525;28;20212;-83
2022/01/08 06:34:13;;;;;;;22.47;15.17;;;2.30;99.90;;;;;;5048323;28;20209;-83
2022/01/08 06:36:39;;;;;;;30.97;16.03;;;2.30;99.90;;;;;;5027383;28;20185;-82
2022/01/08 06:39:07;;;;;;;23.57;16.07;;;2.20;99.90;;;;;;5040406;28;20174;-83
2022/01/08 06:41:32;;;;;;;22.40;15.33;;;2.20;99.90;;;;;;5027801;28;20698;-83
2022/01/08 06:43:58;;;;;;;23.27;15.97;;;2.30;99.90;;;;;;5044574;28;20177;-83
2022/01/08 06:46:24;;;;;;;20.13;15.33;;;2.30;99.90;;;;;;5028126;28;20193;-84
2022/01/08 06:48:50;;;;;;;20.83;15.43;;;2.20;99.90;;;;;;5035528;28;20185;-83
2022/01/08 06:51:16;;;;;;;24.80;15.27;;;2.20;99.90;;;;;;5028530;28;20284;-84
2022/01/08 06:53:42;;;;;;;17.87;14.40;;;2.20;99.90;;;;;;5026910;28;20206;-82
2022/01/08 06:56:11;;;;;;;22.20;15.13;;;2.30;99.90;;;;;;5036287;28;20219;-81
2022/01/08 06:58:36;;;;;;;23.93;15.03;;;2.30;99.90;;;;;;5030173;28;20185;-84
2022/01/08 07:01:02;;;;;;;21.33;15.00;;;2.20;99.90;;;;;;5026343;28;20223;-83
2022/01/08 07:03:28;;;;;;;20.00;13.73;;;2.20;99.90;;;;;;5029740;28;20279;-83
2022/01/08 07:05:54;;;;;;;20.17;13.67;;;2.20;99.90;;;;;;5030244;28;20176;-82
2022/01/08 07:08:19;;;;;;;19.07;13.10;;;2.20;99.90;;;;;;5029833;28;20188;-83
2022/01/08 07:10:45;;;;;;;21.90;14.40;;;2.20;99.90;;;;;;5029298;28;20222;-83
2022/01/08 07:13:11;;;;;;;18.17;13.43;;;2.20;99.90;;;;;;5028710;28;20217;-83
2022/01/08 07:15:37;;;;;;;18.70;13.47;;;2.20;99.90;;;;;;5025992;28;20181;-83
2022/01/08 07:18:03;;;;;;;20.83;14.00;;;2.20;99.90;;;;;;5022024;28;20170;-83
2022/01/08 07:20:33;;;;;;;23.77;15.03;;;2.10;99.90;;;;;;5046830;28;20275;-81
2022/01/08 07:22:59;;;;;;;22.20;15.63;;;2.20;99.90;;;;;;5044921;28;20223;-83
2022/01/08 07:25:25;;;;;;;23.23;15.87;;;2.20;99.90;;;;;;5036104;28;20205;-82
2022/01/08 07:27:51;;;;;;;23.70;15.50;;;2.30;99.90;;;;;;5051722;28;20181;-82
2022/01/08 07:30:20;;;;;;;21.70;14.83;;;2.30;99.90;;;;;;5033638;28;20192;-83
2022/01/08 07:32:48;;;;;;;23.37;15.93;;;2.30;99.90;;;;;;5048067;28;20254;-83
2022/01/08 07:35:16;;;;;;;24.33;15.67;;;2.40;99.90;;;;;;5031531;28;20209;-83
2022/01/08 07:37:43;;;;;;;25.63;16.70;;;2.40;99.90;;;;;;5047428;28;20236;-84
2022/01/08 07:40:10;;;;;;;28.30;17.80;;;2.50;99.90;;;;;;5029470;28;20247;-83
2022/01/08 07:42:37;;;;;;;26.53;16.53;;;2.50;99.90;;;;;;5040688;28;20209;-83
2022/01/08 07:45:04;;;;;;;23.80;16.03;;;2.50;99.90;;;;;;5043473;28;20574;-82
2022/01/08 07:47:32;;;;;;;26.77;16.47;;;2.40;99.90;;;;;;5030919;28;20181;-83
2022/01/08 07:49:58;;;;;;;25.57;16.83;;;2.40;99.90;;;;;;5030953;28;20211;-83
2022/01/08 07:52:24;;;;;;;27.77;17.50;;;2.30;99.90;;;;;;5029960;28;20194;-83
2022/01/08 07:54:49;;;;;;;29.73;18.90;;;2.40;99.90;;;;;;5028454;28;20587;-84
2022/01/08 07:57:16;;;;;;;29.07;18.43;;;2.40;99.90;;;;;;5031584;28;20695;-83
2022/01/08 08:00:03;;;;;;;26.57;17.00;;;2.30;99.90;;;;;;5031429;28;20185;-84
2022/01/08 08:02:37;;;;;;;26.40;17.40;;;2.40;99.90;;;;;;5048057;28;20201;-83
2022/01/08 08:05:03;;;;;;;26.97;17.63;;;2.40;99.90;;;;;;5031485;28;20300;-83
2022/01/08 08:07:36;;;;;;;30.60;18.63;;;2.40;99.90;;;;;;5032166;28;20181;-83
2022/01/08 08:10:10;;;;;;;29.37;20.03;;;2.40;99.90;;;;;;5046500;28;20219;-83
2022/01/08 08:12:36;;;;;;;30.57;19.63;;;2.40;99.90;;;;;;5036390;28;20327;-84
2022/01/08 08:15:04;;;;;;;32.07;21.27;;;2.40;99.90;;;;;;5051019;28;20647;-83
2022/01/08 08:17:30;;;;;;;31.20;19.10;;;2.40;99.90;;;;;;5035958;28;20224;-83
2022/01/08 08:19:56;;;;;;;32.00;18.20;;;2.30;99.90;;;;;;5037378;28;20177;-83
2022/01/08 08:22:22;;;;;;;29.73;19.43;;;2.30;99.90;;;;;;5032699;28;20232;-84
2022/01/08 08:24:48;;;;;;;28.17;17.83;;;2.40;99.90;;;;;;5039244;28;20699;-83
2022/01/08 08:27:13;;;;;;;28.27;18.13;;;2.30;99.90;;;;;;5055459;28;20161;-83
2022/01/08 08:29:40;;;;;;;27.80;18.23;;;2.30;99.90;;;;;;5039375;28;20208;-82
2022/01/08 08:32:07;;;;;;;31.20;18.20;;;2.30;99.90;;;;;;5055450;28;20225;-81
2022/01/08 08:34:33;;;;;;;30.70;19.17;;;2.30;99.90;;;;;;5039106;28;20583;-82
2022/01/08 08:36:58;;;;;;;30.83;18.20;;;2.30;99.90;;;;;;5055266;28;20193;-82
2022/01/08 08:39:25;;;;;;;31.13;18.90;;;2.40;99.90;;;;;;5036698;28;20178;-83
2022/01/08 08:41:51;;;;;;;28.07;18.07;;;2.40;99.90;;;;;;5033334;28;20209;-83
2022/01/08 08:44:17;;;;;;;30.00;19.43;;;2.40;99.90;;;;;;5029139;28;20283;-83
2022/01/08 08:46:43;;;;;;;28.17;18.27;;;2.40;99.90;;;;;;5030073;28;20181;-83
2022/01/08 08:49:09;;;;;;;24.27;17.20;;;2.30;99.90;;;;;;5047132;28;20245;-82
2022/01/08 08:51:35;;;;;;;27.73;17.43;;;2.40;99.90;;;;;;5030365;28;20204;-82
2022/01/08 08:54:01;;;;;;;25.53;17.10;;;2.40;99.90;;;;;;5030155;28;20205;-83
2022/01/08 08:56:28;;;;;;;26.70;17.67;;;2.30;99.90;;;;;;5031281;28;20188;-83
2022/01/08 08:58:54;;;;;;;26.57;16.40;;;2.40;99.90;;;;;;5030251;28;20572;-83
2022/01/08 09:01:20;;;;;;;26.20;16.80;;;2.40;99.90;;;;;;5030173;28;20680;-83
2022/01/08 09:03:47;;;;;;;27.87;17.20;;;2.30;99.90;;;;;;5031560;28;20201;-83
2022/01/08 09:06:13;;;;;;;31.43;17.50;;;2.40;99.90;;;;;;5030819;28;20169;-83
2022/01/08 09:08:39;;;;;;;29.60;17.23;;;2.40;99.90;;;;;;5046386;28;20218;-83
2022/01/08 09:11:04;;;;;;;27.60;17.23;;;2.40;99.90;;;;;;5035626;28;20181;-82
2022/01/08 09:13:30;;;;;;;28.80;17.00;;;2.50;99.90;;;;;;5030328;28;20239;-82
2022/01/08 09:15:56;;;;;;;26.50;16.00;;;2.60;99.90;;;;;;5030062;28;20539;-83
2022/01/08 09:18:22;;;;;;;25.23;16.70;;;2.70;99.90;;;;;;5025839;28;20206;-82
2022/01/08 09:20:48;;;;;;;23.47;15.47;;;2.70;99.90;;;;;;5039921;28;20179;-82
2022/01/08 09:23:14;;;;;;;24.37;15.77;;;2.60;99.90;;;;;;5043735;28;20220;-83
2022/01/08 09:25:40;;;;;;;23.63;15.50;;;2.60;99.90;;;;;;5045721;28;20182;-83
2022/01/08 09:28:06;;;;;;;25.43;14.50;;;2.60;99.90;;;;;;5031766;28;20249;-83
2022/01/08 09:30:32;;;;;;;20.97;15.03;;;2.60;99.90;;;;;;5046709;28;20232;-83
2022/01/08 09:32:58;;;;;;;24.47;15.63;;;2.70;99.90;;;;;;5048256;28;20212;-83
2022/01/08 09:35:25;;;;;;;26.77;14.03;;;2.80;99.90;;;;;;5047495;28;20181;-83
2022/01/08 09:37:53;;;;;;;21.10;14.40;;;2.80;99.90;;;;;;5048339;28;20174;-83
2022/01/08 09:40:21;;;;;;;23.73;14.30;;;2.70;99.90;;;;;;5045333;28;20177;-82
2022/01/08 09:42:49;;;;;;;23.30;14.60;;;2.70;99.90;;;;;;5038070;28;20193;-83
2022/01/08 09:45:15;;;;;;;19.27;13.03;;;2.80;99.90;;;;;;5036018;28;20173;-83
2022/01/08 09:47:45;;;;;;;21.70;13.97;;;3.00;99.90;;;;;;5036523;28;20177;-83
2022/01/08 09:50:11;;;;;;;22.17;13.50;;;3.10;99.90;;;;;;5035207;28;20174;-83
2022/01/08 09:52:37;;;;;;;22.40;14.10;;;3.00;99.90;;;;;;5051373;28;20198;-83
2022/01/08 09:55:05;;;;;;;24.53;13.47;;;3.00;99.90;;;;;;5053066;28;20177;-83
2022/01/08 09:57:31;;;;;;;22.60;14.17;;;3.00;99.90;;;;;;5036159;28;20184;-82
2022/01/08 09:59:57;;;;;;;19.77;13.80;;;3.10;99.90;;;;;;5034948;28;20193;-83
2022/01/08 10:02:24;;;;;;;23.40;13.50;;;3.00;99.90;;;;;;5052716;28;20201;-83
2022/01/08 10:04:51;;;;;;;19.73;13.50;;;3.10;99.90;;;;;;5035321;28;20177;-83
2022/01/08 10:07:16;;;;;;;21.10;13.67;;;3.10;99.90;;;;;;5037131;28;20249;-83
2022/01/08 10:10:15;;;;;;;21.70;14.30;;;3.00;99.90;;;;;;5038759;28;20169;-83
2022/01/08 10:12:46;;;;;;;20.60;12.43;;;3.00;99.90;;;;;;5056676;28;20204;-82
2022/01/08 10:18:19;;;;;;;23.63;13.90;;;3.10;99.90;;;;;;5056729;28;20178;-83
2022/01/08 10:20:49;;;;;;;18.60;12.87;;;3.10;99.90;;;;;;5035767;28;20170;-83
2022/01/08 10:23:23;;;;;;;19.70;13.13;;;3.20;99.90;;;;;;5045211;28;20261;-85
2022/01/08 10:26:10;;;;;;;20.27;13.57;;;3.10;99.90;;;;;;5033731;28;20193;-83
2022/01/08 10:28:52;;;;;;;19.77;13.27;;;3.20;99.90;;;;;;5038938;28;20197;-82
2022/01/08 10:31:35;;;;;;;18.50;12.73;;;3.30;99.90;;;;;;5055790;28;20205;-83
2022/01/08 10:34:01;;;;;;;21.00;13.40;;;3.30;99.90;;;;;;5056036;28;20595;-81
2022/01/08 10:36:26;;;;;;;18.77;12.93;;;3.30;99.90;;;;;;5038945;28;20166;-83
2022/01/08 10:38:55;;;;;;;16.33;11.67;;;3.40;99.90;;;;;;5035303;28;20173;-83
2022/01/08 10:41:21;;;;;;;15.63;11.63;;;3.40;99.90;;;;;;5048796;28;20274;-84
2022/01/08 10:43:47;;;;;;;23.30;12.60;;;3.30;99.90;;;;;;5040125;28;20218;-83
2022/01/08 10:46:18;;;;;;;16.73;11.90;;;3.20;99.90;;;;;;5047758;28;20174;-83
2022/01/08 10:48:49;;;;;;;16.50;11.83;;;3.10;99.90;;;;;;5048065;28;20189;-83
2022/01/08 10:51:19;;;;;;;19.37;12.33;;;3.20;99.90;;;;;;5051111;28;20178;-83
2022/01/08 10:54:15;;;;;;;17.53;11.77;;;3.20;99.90;;;;;;5056883;28;20193;-83
2022/01/08 10:57:02;;;;;;;16.57;11.90;;;3.30;99.90;;;;;;5042793;28;20223;-83
2022/01/08 10:59:40;;;;;;;15.87;11.83;;;3.30;99.90;;;;;;5062112;28;20177;-83
2022/01/08 11:02:36;;;;;;;19.67;11.70;;;3.40;99.90;;;;;;5045562;28;20219;-84
2022/01/08 11:05:07;;;;;;;20.23;12.00;;;3.40;99.90;;;;;;5044358;28;20187;-82
2022/01/08 11:07:34;;;;;;;23.67;14.03;;;3.50;99.90;;;;;;5044930;28;20181;-83
2022/01/08 11:10:07;;;;;;;25.13;13.87;;;3.60;99.90;;;;;;5057460;28;20249;-83
2022/01/08 11:12:41;;;;;;;23.70;14.03;;;3.60;99.90;;;;;;5061763;28;20212;-82
2022/01/08 11:18:00;;;;;;;20.60;11.43;;;3.60;99.90;;;;;;5060840;28;20192;-81
2022/01/08 11:20:30;;;;;;;13.67;10.30;;;3.60;99.90;;;;;;5059556;28;20212;-81
2022/01/08 11:23:02;;;;;;;15.93;11.07;;;3.60;99.90;;;;;;5040488;28;20196;-81
2022/01/08 11:25:38;;;;;;;16.83;10.37;;;3.60;99.90;;;;;;5038091;28;20181;-82
2022/01/08 11:28:13;;;;;;;14.13;10.07;;;3.60;99.90;;;;;;5044402;28;20181;-81
2022/01/08 11:30:42;;;;;;;15.33;10.43;;;3.60;99.90;;;;;;5036009;28;20233;-81
2022/01/08 11:33:29;;;;;;;17.97;10.40;;;3.60;99.90;;;;;;5038226;28;20204;-81
2022/01/08 11:36:06;;;;;;;15.53;10.53;;;3.70;99.90;;;;;;5052860;28;20169;-81
2022/01/08 11:38:32;;;;;;;14.50;9.77;;;3.70;99.90;;;;;;5045477;28;20233;-82
2022/01/08 11:41:02;;;;;;;17.20;10.03;;;3.70;99.90;;;;;;5044987;28;20188;-81
2022/01/08 11:43:29;;;;;;;16.17;10.40;;;3.80;99.90;;;;;;5061978;28;20182;-81
2022/01/08 11:46:00;;;;;;;17.03;9.70;;;3.80;99.90;;;;;;5045085;28;20170;-82
2022/01/08 11:48:37;;;;;;;17.90;10.80;;;3.80;99.90;;;;;;5041259;28;20178;-81
2022/01/08 11:51:06;;;;;;;16.30;10.30;;;3.90;99.90;;;;;;5042273;28;20283;-81
2022/01/08 11:53:44;;;;;;;15.70;9.73;;;3.90;99.90;;;;;;5037686;28;20202;-80
2022/01/08 11:56:27;;;;;;;17.00;9.80;;;4.00;99.90;;;;;;5040768;28;20215;-81
2022/01/08 11:59:11;;;;;;;15.43;9.80;;;4.00;99.90;;;;;;5041119;28;20198;-82
2022/01/08 12:01:38;;;;;;;16.57;9.43;;;4.10;99.90;;;;;;5036196;28;20185;-82
2022/01/08 12:04:31;;;;;;;15.57;9.50;;;4.10;99.90;;;;;;5044401;28;20185;-81
2022/01/08 12:06:57;;;;;;;15.50;9.30;;;4.10;99.90;;;;;;5039522;28;20163;-79
2022/01/08 12:09:24;;;;;;;14.60;8.97;;;4.10;99.90;;;;;;5041816;28;20249;-81
2022/01/08 12:11:56;;;;;;;13.27;8.33;;;4.20;99.90;;;;;;5041638;28;20204;-81
2022/01/08 12:14:27;;;;;;;11.70;7.27;;;4.20;99.90;;;;;;5053871;28;20201;-80
2022/01/08 12:16:55;;;;;;;14.70;7.97;;;4.20;99.90;;;;;;5041613;28;20181;-80
2022/01/08 12:19:29;;;;;;;15.10;8.23;;;4.20;99.90;;;;;;5048557;28;20181;-81
2022/01/08 12:21:57;;;;;;;14.67;7.80;;;4.40;99.90;;;;;;5031718;28;20195;-81
2022/01/08 12:24:26;;;;;;;13.33;8.03;;;4.50;99.90;;;;;;5039878;28;20157;-81
2022/01/08 12:26:52;;;;;;;11.37;7.97;;;4.60;99.90;;;;;;5025035;28;20173;-80
2022/01/08 12:29:38;;;;;;;13.67;8.00;;;4.50;99.90;;;;;;5016263;28;20188;-80
2022/01/08 12:32:20;;;;;;;13.83;8.17;;;4.60;99.90;;;;;;5044550;28;20224;-82
2022/01/08 12:34:50;;;;;;;12.07;7.90;;;4.70;99.90;;;;;;5043225;28;20208;-81
2022/01/08 12:37:18;;;;;;;19.77;9.00;;;4.70;99.90;;;;;;5025290;28;20178;-81
2022/01/08 12:39:43;;;;;;;13.97;8.27;;;4.70;99.90;;;;;;5018763;28;20174;-82
2022/01/08 12:42:26;;;;;;;12.57;7.77;;;4.70;99.90;;;;;;5045687;28;20209;-80
2022/01/08 12:45:06;;;;;;;11.57;8.23;;;4.60;99.90;;;;;;5027057;28;20178;-81
2022/01/08 12:47:48;;;;;;;13.40;8.17;;;4.50;99.90;;;;;;5044453;28;20182;-80
2022/01/08 12:50:34;;;;;;;13.87;8.27;;;4.30;99.90;;;;;;5041308;28;20264;-80
2022/01/08 12:53:15;;;;;;;17.57;8.20;;;4.20;99.90;;;;;;5028754;28;20213;-81
2022/01/08 12:55:42;;;;;;;15.50;8.30;;;4.20;99.90;;;;;;5030191;28;20173;-81
2022/01/08 12:58:18;;;;;;;12.77;8.73;;;4.20;99.90;;;;;;5021756;28;20174;-81
2022/01/08 13:00:58;;;;;;;14.93;8.10;;;4.20;99.90;;;;;;5047956;28;20173;-80
2022/01/08 13:03:32;;;;;;;20.17;9.30;;;4.30;99.90;;;;;;5038150;28;20204;-80
2022/01/08 13:05:59;;;;;;;16.13;8.97;;;4.40;99.90;;;;;;5050218;28;20195;-80
2022/01/08 13:08:30;;;;;;;12.90;8.90;;;4.40;99.90;;;;;;5051150;28;20177;-81
2022/01/08 13:11:00;;;;;;;12.93;8.33;;;4.40;99.90;;;;;;5050518;28;20231;-80
2022/01/08 13:13:41;;;;;;;13.60;8.60;;;4.40;99.90;;;;;;5051069;28;20198;-81
2022/01/08 13:16:12;;;;;;;15.13;9.00;;;4.50;99.90;;;;;;5046968;28;20177;-81
2022/01/08 13:18:39;;;;;;;12.57;8.03;;;4.40;99.90;;;;;;5046938;28;20169;-81
2022/01/08 13:21:06;;;;;;;12.33;8.87;;;4.50;99.90;;;;;;5030218;28;20178;-81
2022/01/08 13:23:41;;;;;;;15.47;9.10;;;4.40;99.90;;;;;;5026434;28;20549;-81
2022/01/08 13:26:07;;;;;;;13.80;8.50;;;4.40;99.90;;;;;;5022373;28;20184;-81
2022/01/08 13:28:33;;;;;;;16.00;8.17;;;4.50;99.90;;;;;;5020797;28;20173;-82
2022/01/08 13:30:59;;;;;;;10.37;8.07;;;4.40;99.90;;;;;;5044331;28;20174;-82
2022/01/08 13:33:29;;;;;;;17.10;8.30;;;4.40;99.90;;;;;;5031003;28;21557;-81
2022/01/08 13:36:03;;;;;;;15.37;8.83;;;4.40;99.90;;;;;;5052588;28;20182;-82
2022/01/08 13:38:35;;;;;;;12.20;6.93;;;4.40;99.90;;;;;;5034067;28;20388;-82
2022/01/08 13:41:17;;;;;;;12.23;7.40;;;4.40;99.90;;;;;;5035453;28;20189;-81
2022/01/08 13:44:02;;;;;;;14.93;7.67;;;4.40;99.90;;;;;;5052122;28;20169;-83
2022/01/08 13:46:32;;;;;;;12.10;7.37;;;4.40;99.90;;;;;;5052261;28;20185;-83
2022/01/08 13:49:02;;;;;;;16.37;8.50;;;4.40;99.90;;;;;;5036555;28;20177;-83
2022/01/08 13:51:31;;;;;;;11.93;7.37;;;4.50;99.90;;;;;;5029709;28;20200;-82
2022/01/08 13:54:08;;;;;;;14.30;7.10;;;4.50;99.90;;;;;;5051192;28;20204;-83
2022/01/08 13:56:35;;;;;;;13.50;6.93;;;4.50;99.90;;;;;;5032755;28;20209;-83
2022/01/08 13:59:10;;;;;;;11.23;7.13;;;4.60;99.90;;;;;;5035332;28;20193;-81
2022/01/08 14:01:42;;;;;;;10.57;7.20;;;4.50;99.90;;;;;;5034665;28;20208;-83
2022/01/08 14:04:09;;;;;;;13.30;6.53;;;4.40;99.90;;;;;;5044747;23;20273;-78